createdAt,value
2022-11-27T00:00:02.277Z,3.60
2022-11-27T00:02:59.436Z,3.60
2022-11-27T00:05:53.662Z,3.40
2022-11-27T00:08:42.055Z,3.20
2022-11-27T00:11:30.450Z,3.20
2022-11-27T00:14:17.733Z,3.20
2022-11-27T00:17:04.494Z,3.30
2022-11-27T00:19:51.044Z,3.50
2022-11-27T00:22:37.277Z,3.30
2022-11-27T00:25:25.079Z,3.30
2022-11-27T00:28:11.644Z,3.30
2022-11-27T00:31:00.249Z,3.10
2022-11-27T00:33:46.846Z,3.00
2022-11-27T00:36:34.625Z,2.90
2022-11-27T00:39:21.108Z,3.00
2022-11-27T00:42:08.838Z,3.10
2022-11-27T00:44:55.321Z,3.30
2022-11-27T00:47:41.843Z,3.50
2022-11-27T00:50:31.619Z,3.40
2022-11-27T00:53:18.436Z,3.50
2022-11-27T00:56:06.171Z,3.60
2022-11-27T00:58:54.969Z,3.80
2022-11-27T01:01:43.812Z,3.90
2022-11-27T01:04:30.384Z,3.80
2022-11-27T01:07:17.340Z,3.70
2022-11-27T01:10:04.646Z,3.90
2022-11-27T01:12:51.101Z,4.00
2022-11-27T01:15:39.033Z,4.00
2022-11-27T01:18:26.173Z,4.00
2022-11-27T01:21:13.545Z,3.90
2022-11-27T01:24:01.071Z,3.90
2022-11-27T01:26:47.778Z,3.60
2022-11-27T01:29:34.022Z,3.50
2022-11-27T01:32:21.960Z,3.40
2022-11-27T01:35:09.926Z,3.40
2022-11-27T01:37:56.410Z,3.60
2022-11-27T01:40:43.840Z,3.70
2022-11-27T01:43:42.084Z,3.70
2022-11-27T01:46:36.485Z,3.70
2022-11-27T01:49:30.088Z,3.50
2022-11-27T01:52:21.191Z,3.50
2022-11-27T01:55:11.533Z,3.50
2022-11-27T01:58:02.108Z,3.50
2022-11-27T02:00:48.789Z,3.50
2022-11-27T02:03:35.565Z,3.40
2022-11-27T02:06:23.322Z,3.50
2022-11-27T02:09:10.197Z,3.60
2022-11-27T02:12:06.363Z,3.40
2022-11-27T02:15:01.010Z,3.40
2022-11-27T02:17:57.024Z,3.30
2022-11-27T02:20:52.301Z,3.40
2022-11-27T02:23:59.730Z,3.20
2022-11-27T02:27:23.998Z,3.00
2022-11-27T02:30:12.255Z,3.00
2022-11-27T02:33:00.840Z,3.00
2022-11-27T02:35:52.233Z,3.00
2022-11-27T02:38:42.766Z,2.90
2022-11-27T02:41:33.967Z,3.00
2022-11-27T02:44:21.758Z,3.00
2022-11-27T02:47:11.198Z,3.00
2022-11-27T02:49:58.628Z,3.00
2022-11-27T02:52:47.686Z,3.00
2022-11-27T02:55:37.158Z,3.20
2022-11-27T02:58:27.890Z,3.30
2022-11-27T03:01:17.035Z,3.30
2022-11-27T03:04:10.099Z,3.40
2022-11-27T03:07:00.566Z,3.30
2022-11-27T03:09:50.791Z,3.30
2022-11-27T03:12:37.988Z,3.30
2022-11-27T03:15:26.853Z,3.30
2022-11-27T03:18:19.591Z,3.30
2022-11-27T03:21:19.762Z,3.30
2022-11-27T03:24:07.480Z,3.30
2022-11-27T03:26:54.091Z,3.50
2022-11-27T03:29:44.107Z,3.50
2022-11-27T03:32:32.020Z,3.50
2022-11-27T03:35:22.236Z,3.40
2022-11-27T03:38:10.046Z,3.30
2022-11-27T03:41:08.001Z,3.20
2022-11-27T03:44:04.444Z,3.30
2022-11-27T03:47:02.766Z,3.10
2022-11-27T03:50:06.846Z,2.90
2022-11-27T03:52:58.377Z,2.80
2022-11-27T03:55:55.044Z,2.60
2022-11-27T03:58:45.907Z,2.60
2022-11-27T04:01:32.786Z,2.50
2022-11-27T04:04:19.862Z,2.50
2022-11-27T04:07:06.722Z,2.40
2022-11-27T04:09:53.077Z,2.50
2022-11-27T04:12:42.988Z,2.70
2022-11-27T04:15:29.670Z,2.80
2022-11-27T04:18:16.399Z,2.80
2022-11-27T04:21:03.006Z,2.40
2022-11-27T04:23:49.505Z,2.30
2022-11-27T04:26:36.027Z,2.10
2022-11-27T04:29:24.158Z,2.00
2022-11-27T04:32:10.674Z,2.20
2022-11-27T04:34:57.302Z,2.00
2022-11-27T04:37:43.755Z,2.10
2022-11-27T04:40:30.259Z,2.10
2022-11-27T04:43:16.456Z,2.30
2022-11-27T04:46:04.097Z,2.30
2022-11-27T04:48:50.461Z,2.40
2022-11-27T04:51:36.882Z,2.60
2022-11-27T04:54:23.582Z,2.80
2022-11-27T04:57:10.307Z,2.90
2022-11-27T04:59:56.933Z,2.90
2022-11-27T05:02:45.001Z,2.90
2022-11-27T05:05:31.604Z,2.80
2022-11-27T05:08:18.474Z,2.80
2022-11-27T05:11:06.934Z,2.80
2022-11-27T05:14:14.037Z,2.70
2022-11-27T05:17:01.309Z,2.90
2022-11-27T05:19:49.079Z,2.90
2022-11-27T05:22:35.950Z,3.00
2022-11-27T05:25:22.363Z,3.00
2022-11-27T05:28:09.327Z,2.90
2022-11-27T05:30:55.752Z,2.70
2022-11-27T05:33:42.610Z,2.80
2022-11-27T05:36:31.105Z,2.80
2022-11-27T05:39:17.637Z,2.80
2022-11-27T05:42:04.079Z,3.00
2022-11-27T05:44:55.254Z,2.90
2022-11-27T05:47:44.431Z,3.00
2022-11-27T05:50:30.979Z,2.90
2022-11-27T05:53:20.112Z,2.90
2022-11-27T05:56:09.098Z,3.00
2022-11-27T05:58:55.730Z,2.80
2022-11-27T06:01:42.344Z,2.70
2022-11-27T06:04:28.950Z,2.70
2022-11-27T06:07:15.458Z,2.70
2022-11-27T06:10:03.840Z,2.60
2022-11-27T06:12:50.364Z,2.60
2022-11-27T06:15:37.787Z,2.50
2022-11-27T06:18:24.699Z,2.10
2022-11-27T06:21:12.900Z,1.90
2022-11-27T06:23:59.703Z,1.80
2022-11-27T06:26:47.751Z,1.70
2022-11-27T06:29:34.366Z,1.60
2022-11-27T06:32:20.881Z,1.40
2022-11-27T06:35:08.884Z,1.40
2022-11-27T06:37:55.386Z,1.50
2022-11-27T06:40:41.694Z,1.50
2022-11-27T06:43:29.548Z,1.70
2022-11-27T06:46:18.538Z,1.90
2022-11-27T06:49:05.348Z,2.00
2022-11-27T06:51:51.984Z,2.00
2022-11-27T06:54:38.567Z,2.10
2022-11-27T06:57:25.221Z,2.10
2022-11-27T07:00:14.250Z,2.20
2022-11-27T07:03:00.571Z,2.40
2022-11-27T07:05:47.233Z,2.60
2022-11-27T07:08:34.426Z,2.50
2022-11-27T07:11:23.114Z,2.50
2022-11-27T07:14:11.575Z,2.50
2022-11-27T07:16:59.254Z,2.50
2022-11-27T07:19:46.035Z,2.40
2022-11-27T07:22:33.485Z,2.50
2022-11-27T07:25:20.018Z,2.80
2022-11-27T07:28:06.377Z,2.90
2022-11-27T07:30:56.611Z,3.10
2022-11-27T07:33:44.832Z,3.20
2022-11-27T07:36:32.194Z,3.20
2022-11-27T07:39:33.788Z,3.10
2022-11-27T07:42:40.640Z,3.10
2022-11-27T07:45:29.623Z,3.10
2022-11-27T07:48:16.684Z,3.30
2022-11-27T07:51:06.877Z,3.30
2022-11-27T07:53:53.463Z,3.20
2022-11-27T07:56:40.086Z,3.30
2022-11-27T07:59:26.740Z,3.40
2022-11-27T08:02:14.222Z,3.60
2022-11-27T08:05:00.884Z,3.70
2022-11-27T08:07:49.287Z,3.70
2022-11-27T08:10:37.011Z,3.90
2022-11-27T08:13:23.640Z,4.00
2022-11-27T08:16:10.373Z,4.20
2022-11-27T08:18:57.035Z,4.30
2022-11-27T08:21:43.337Z,4.30
2022-11-27T08:24:31.218Z,4.30
2022-11-27T08:27:18.185Z,3.90
2022-11-27T08:30:05.392Z,3.60
2022-11-27T08:32:52.233Z,3.60
2022-11-27T08:35:39.476Z,3.60
2022-11-27T08:38:26.256Z,3.80
2022-11-27T08:41:13.967Z,4.00
2022-11-27T08:44:00.414Z,4.00
2022-11-27T08:46:46.880Z,4.10
2022-11-27T08:49:33.254Z,4.20
2022-11-27T08:52:20.587Z,4.40
2022-11-27T08:55:08.436Z,4.20
2022-11-27T08:57:56.254Z,4.50
2022-11-27T09:00:43.254Z,4.70
2022-11-27T09:03:31.031Z,4.60
2022-11-27T09:06:19.153Z,4.90
2022-11-27T09:09:06.948Z,5.20
2022-11-27T09:11:55.523Z,5.30
2022-11-27T09:14:43.546Z,5.60
2022-11-27T09:17:31.934Z,5.90
2022-11-27T09:20:18.425Z,6.30
2022-11-27T09:23:06.251Z,6.50
2022-11-27T09:25:55.506Z,6.60
2022-11-27T09:28:43.241Z,6.70
2022-11-27T09:31:31.276Z,6.80
2022-11-27T09:34:18.126Z,7.00
2022-11-27T09:37:05.855Z,7.10
2022-11-27T09:39:52.449Z,7.00
2022-11-27T09:42:46.025Z,7.10
2022-11-27T09:45:33.224Z,7.00
2022-11-27T09:48:29.707Z,7.10
2022-11-27T09:51:24.593Z,7.10
2022-11-27T09:54:16.887Z,7.10
2022-11-27T09:57:05.196Z,7.10
2022-11-27T09:59:54.521Z,7.20
2022-11-27T10:02:42.940Z,7.10
2022-11-27T10:05:39.093Z,7.10
2022-11-27T10:08:35.287Z,7.20
2022-11-27T10:11:30.308Z,7.20
2022-11-27T10:14:35.182Z,7.30
2022-11-27T10:17:27.530Z,7.10
2022-11-27T10:20:23.384Z,7.20
2022-11-27T10:23:19.555Z,7.40
2022-11-27T10:26:08.700Z,7.50
2022-11-27T10:29:03.312Z,7.80
2022-11-27T10:31:53.113Z,8.00
2022-11-27T10:34:42.765Z,8.20
2022-11-27T10:37:34.294Z,8.30
2022-11-27T10:40:26.812Z,8.10
2022-11-27T10:43:18.156Z,8.20
2022-11-27T10:46:10.689Z,8.20
2022-11-27T10:48:57.318Z,8.20
2022-11-27T10:51:43.612Z,8.40
2022-11-27T10:54:35.274Z,8.30
2022-11-27T10:57:54.494Z,8.40
2022-11-27T11:00:40.963Z,8.50
2022-11-27T11:03:27.307Z,8.50
2022-11-27T11:06:21.538Z,8.50
2022-11-27T11:09:16.188Z,8.50
2022-11-27T11:12:10.246Z,8.50
2022-11-27T11:15:00.410Z,8.60
2022-11-27T11:17:47.058Z,8.90
2022-11-27T11:20:33.489Z,9.10
2022-11-27T11:23:39.347Z,9.10
2022-11-27T11:26:29.579Z,8.80
2022-11-27T11:29:33.730Z,8.50
2022-11-27T11:32:24.574Z,8.60
2022-11-27T11:35:25.539Z,8.50
2022-11-27T11:38:18.974Z,8.60
2022-11-27T11:41:07.442Z,8.70
2022-11-27T11:43:59.627Z,8.50
2022-11-27T11:46:53.050Z,8.30
2022-11-27T11:49:41.214Z,8.30
2022-11-27T11:52:45.914Z,8.20
2022-11-27T11:55:36.933Z,8.60
2022-11-27T11:58:39.644Z,8.90
2022-11-27T12:01:46.452Z,9.00
2022-11-27T12:05:06.161Z,8.90
2022-11-27T12:08:09.694Z,8.70
2022-11-27T12:11:03.903Z,8.80
2022-11-27T12:14:03.581Z,8.90
2022-11-27T12:17:07.368Z,8.70
2022-11-27T12:20:19.616Z,8.70
2022-11-27T12:23:38.894Z,8.80
2022-11-27T12:26:37.892Z,8.70
2022-11-27T12:29:47.783Z,8.60
2022-11-27T12:32:48.361Z,8.70
2022-11-27T12:35:42.899Z,8.60
2022-11-27T12:39:04.249Z,8.70
2022-11-27T12:42:02.654Z,8.80
2022-11-27T12:44:57.774Z,8.90
2022-11-27T12:47:48.715Z,9.00
2022-11-27T12:50:42.623Z,9.00
2022-11-27T12:53:30.919Z,8.90
2022-11-27T12:56:24.510Z,8.90
2022-11-27T12:59:16.967Z,8.70
2022-11-27T13:02:11.937Z,8.70
2022-11-27T13:05:03.487Z,8.60
2022-11-27T13:07:55.467Z,8.50
2022-11-27T13:10:52.124Z,8.30
2022-11-27T13:13:41.973Z,8.20
2022-11-27T13:16:33.143Z,8.10
2022-11-27T13:19:26.155Z,8.10
2022-11-27T13:22:15.674Z,8.00
2022-11-27T13:25:04.592Z,8.00
2022-11-27T13:27:53.262Z,7.90
2022-11-27T13:30:40.141Z,7.80
2022-11-27T13:33:39.644Z,7.80
2022-11-27T13:36:34.701Z,7.80
2022-11-27T13:39:25.063Z,7.70
2022-11-27T13:42:21.119Z,7.60
2022-11-27T13:45:11.033Z,7.50
2022-11-27T13:47:59.668Z,7.50
2022-11-27T13:50:47.378Z,7.50
2022-11-27T13:53:36.972Z,7.50
2022-11-27T13:56:31.496Z,7.50
2022-11-27T13:59:21.625Z,7.40
2022-11-27T14:02:09.971Z,7.40
2022-11-27T14:04:56.882Z,7.30
2022-11-27T14:07:46.519Z,7.20
2022-11-27T14:10:34.386Z,7.10
2022-11-27T14:13:26.217Z,7.10
2022-11-27T14:16:28.762Z,7.10
2022-11-27T14:19:34.344Z,7.00
2022-11-27T14:22:48.484Z,7.00
2022-11-27T14:25:42.646Z,6.90
2022-11-27T14:28:32.012Z,6.60
2022-11-27T14:31:30.407Z,6.30
2022-11-27T14:34:27.144Z,6.20
2022-11-27T14:37:25.226Z,6.20
2022-11-27T14:40:15.398Z,6.20
2022-11-27T14:43:09.681Z,6.30
2022-11-27T14:45:58.599Z,6.40
2022-11-27T14:48:47.998Z,6.40
2022-11-27T14:51:37.386Z,6.50
2022-11-27T14:54:26.704Z,6.70
2022-11-27T14:57:19.162Z,6.80
2022-11-27T15:00:17.017Z,6.80
2022-11-27T15:03:10.341Z,6.80
2022-11-27T15:06:00.332Z,6.80
2022-11-27T15:09:09.029Z,6.90
2022-11-27T15:12:00.106Z,7.00
2022-11-27T15:14:50.011Z,6.90
2022-11-27T15:17:39.556Z,6.70
2022-11-27T15:20:29.727Z,6.60
2022-11-27T15:23:20.889Z,6.50
2022-11-27T15:26:15.896Z,6.40
2022-11-27T15:29:04.954Z,6.30
2022-11-27T15:31:52.933Z,6.40
2022-11-27T15:34:40.145Z,6.50
2022-11-27T15:37:31.335Z,6.60
2022-11-27T15:40:29.547Z,6.50
2022-11-27T15:43:17.284Z,6.50
2022-11-27T15:46:08.416Z,6.40
2022-11-27T15:48:54.899Z,6.40
2022-11-27T15:51:41.380Z,6.30
2022-11-27T15:54:28.028Z,6.20
2022-11-27T15:57:15.902Z,6.10
2022-11-27T16:00:03.994Z,6.20
2022-11-27T16:02:57.799Z,6.20
2022-11-27T16:05:44.255Z,6.30
2022-11-27T16:08:30.679Z,6.30
2022-11-27T16:11:19.634Z,6.30
2022-11-27T16:14:07.902Z,6.40
2022-11-27T16:16:54.665Z,6.40
2022-11-27T16:19:41.847Z,6.40
2022-11-27T16:22:28.218Z,6.50
2022-11-27T16:25:15.253Z,6.50
2022-11-27T16:28:03.308Z,6.40
2022-11-27T16:30:53.717Z,6.50
2022-11-27T16:33:40.131Z,6.30
2022-11-27T16:36:27.541Z,6.20
2022-11-27T16:39:14.608Z,6.00
2022-11-27T16:42:01.520Z,6.20
2022-11-27T16:44:48.027Z,6.20
2022-11-27T16:47:36.336Z,6.20
2022-11-27T16:50:23.853Z,6.30
2022-11-27T16:53:10.947Z,6.30
2022-11-27T16:55:57.939Z,6.40
2022-11-27T16:58:47.098Z,6.40
2022-11-27T17:01:36.157Z,6.40
2022-11-27T17:04:24.048Z,6.30
2022-11-27T17:07:11.009Z,6.30
2022-11-27T17:09:58.155Z,6.40
2022-11-27T17:12:44.509Z,6.40
2022-11-27T17:15:34.009Z,6.40
2022-11-27T17:18:23.284Z,6.00
2022-11-27T17:21:13.296Z,5.70
2022-11-27T17:24:02.144Z,5.70
2022-11-27T17:26:55.277Z,5.80
2022-11-27T17:29:49.342Z,5.80
2022-11-27T17:32:37.070Z,6.00
2022-11-27T17:35:24.446Z,5.90
2022-11-27T17:38:13.355Z,5.80
2022-11-27T17:41:01.742Z,5.90
2022-11-27T17:43:48.696Z,6.00
2022-11-27T17:46:36.782Z,6.00
2022-11-27T17:49:24.601Z,6.10
2022-11-27T17:52:11.103Z,6.20
2022-11-27T17:54:58.882Z,6.30
2022-11-27T17:57:45.690Z,6.20
2022-11-27T18:00:33.846Z,6.20
2022-11-27T18:03:20.583Z,6.30
2022-11-27T18:06:07.829Z,6.30
2022-11-27T18:08:55.617Z,6.30
2022-11-27T18:11:43.974Z,6.30
2022-11-27T18:14:30.494Z,6.00
2022-11-27T18:17:18.156Z,5.70
2022-11-27T18:20:05.856Z,5.50
2022-11-27T18:22:52.465Z,5.50
2022-11-27T18:25:46.192Z,5.40
2022-11-27T18:28:37.357Z,5.40
2022-11-27T18:31:24.798Z,5.50
2022-11-27T18:34:11.695Z,5.60
2022-11-27T18:36:59.605Z,5.60
2022-11-27T18:39:47.324Z,5.60
2022-11-27T18:42:33.774Z,5.80
2022-11-27T18:45:33.220Z,5.90
2022-11-27T18:48:23.398Z,6.00
2022-11-27T18:51:13.137Z,6.00
2022-11-27T18:54:00.547Z,6.20
2022-11-27T18:56:48.055Z,6.30
2022-11-27T18:59:35.182Z,6.30
2022-11-27T19:02:23.449Z,6.30
2022-11-27T19:05:11.102Z,6.40
2022-11-27T19:07:59.483Z,6.40
2022-11-27T19:10:46.469Z,6.50
2022-11-27T19:13:33.102Z,6.50
2022-11-27T19:16:21.991Z,6.50
2022-11-27T19:19:30.036Z,6.50
2022-11-27T19:22:19.903Z,6.50
2022-11-27T19:25:07.535Z,6.50
2022-11-27T19:27:54.333Z,6.40
2022-11-27T19:30:42.280Z,6.10
2022-11-27T19:33:28.700Z,6.00
2022-11-27T19:36:16.502Z,5.90
2022-11-27T19:39:06.324Z,5.80
2022-11-27T19:41:53.290Z,5.60
2022-11-27T19:44:40.773Z,5.70
2022-11-27T19:47:28.021Z,5.70
2022-11-27T19:50:15.215Z,5.70
2022-11-27T19:53:05.090Z,5.80
2022-11-27T19:55:55.087Z,5.80
2022-11-27T19:58:43.730Z,5.80
2022-11-27T20:01:31.435Z,5.90
2022-11-27T20:04:17.972Z,6.10
2022-11-27T20:07:04.905Z,6.10
2022-11-27T20:09:53.214Z,6.20
2022-11-27T20:12:41.248Z,6.40
2022-11-27T20:15:28.669Z,6.50
2022-11-27T20:18:15.472Z,6.60
2022-11-27T20:21:06.541Z,6.40
2022-11-27T20:23:54.497Z,6.40
2022-11-27T20:26:43.401Z,6.50
2022-11-27T20:29:31.261Z,6.70
2022-11-27T20:32:17.937Z,6.70
2022-11-27T20:35:05.052Z,6.60
2022-11-27T20:37:51.969Z,6.50
2022-11-27T20:40:39.481Z,6.50
2022-11-27T20:43:27.330Z,6.40
2022-11-27T20:46:14.896Z,6.40
2022-11-27T20:49:01.910Z,6.40
2022-11-27T20:51:50.500Z,6.40
2022-11-27T20:54:40.047Z,6.50
2022-11-27T20:57:27.001Z,6.40
2022-11-27T21:00:15.525Z,6.40
2022-11-27T21:03:02.274Z,6.40
2022-11-27T21:05:48.688Z,6.50
2022-11-27T21:08:36.155Z,6.50
2022-11-27T21:11:25.868Z,6.60
2022-11-27T21:14:14.652Z,6.70
2022-11-27T21:17:05.250Z,6.70
2022-11-27T21:19:54.214Z,6.70
2022-11-27T21:22:42.913Z,6.50
2022-11-27T21:25:30.070Z,6.40
2022-11-27T21:28:17.147Z,6.40
2022-11-27T21:31:08.633Z,6.40
2022-11-27T21:33:57.787Z,6.50
2022-11-27T21:36:44.422Z,6.50
2022-11-27T21:39:32.097Z,6.60
2022-11-27T21:42:18.788Z,6.50
2022-11-27T21:45:06.119Z,6.50
2022-11-27T21:47:53.830Z,6.70
2022-11-27T21:50:42.228Z,6.80
2022-11-27T21:53:32.466Z,6.70
2022-11-27T21:56:22.280Z,6.70
2022-11-27T21:59:09.954Z,6.80
2022-11-27T22:01:57.164Z,6.80
2022-11-27T22:04:44.405Z,6.80
2022-11-27T22:07:32.666Z,6.70
2022-11-27T22:10:19.556Z,6.80
2022-11-27T22:13:06.717Z,6.80
2022-11-27T22:15:53.029Z,6.70
2022-11-27T22:18:39.371Z,6.60
2022-11-27T22:21:27.241Z,6.50
2022-11-27T22:24:19.487Z,6.40
2022-11-27T22:27:10.617Z,6.30
2022-11-27T22:29:57.421Z,6.30
2022-11-27T22:32:44.279Z,6.20
2022-11-27T22:35:31.245Z,6.20
2022-11-27T22:38:17.647Z,6.20
2022-11-27T22:41:05.267Z,6.20
2022-11-27T22:43:52.094Z,6.20
2022-11-27T22:46:42.150Z,6.10
2022-11-27T22:49:28.937Z,6.10
2022-11-27T22:52:15.223Z,6.10
2022-11-27T22:55:02.588Z,6.10
2022-11-27T22:57:50.274Z,6.10
2022-11-27T23:00:37.111Z,6.10
2022-11-27T23:03:24.500Z,6.00
2022-11-27T23:06:12.788Z,6.10
2022-11-27T23:08:59.315Z,6.10
2022-11-27T23:11:46.100Z,6.10
2022-11-27T23:14:33.918Z,6.10
2022-11-27T23:17:20.213Z,6.10
2022-11-27T23:20:08.157Z,6.10
2022-11-27T23:22:54.948Z,6.10
2022-11-27T23:25:41.525Z,6.10
2022-11-27T23:28:27.886Z,6.10
2022-11-27T23:31:33.608Z,6.10
2022-11-27T23:34:20.218Z,6.10
2022-11-27T23:37:06.531Z,6.10
2022-11-27T23:39:52.921Z,6.00
2022-11-27T23:42:39.603Z,6.00
2022-11-27T23:45:26.029Z,6.00
2022-11-27T23:48:14.206Z,6.00
2022-11-27T23:51:01.155Z,6.00
2022-11-27T23:53:50.222Z,6.00
2022-11-27T23:56:37.637Z,6.00
2022-11-27T23:59:24.406Z,5.90
